Time;durP1;ratioP1;P1;durP2;ratioP2;P2;SDS_P1;SDS_P2;PMS_P1;PMS_P2;Temp;Humidity;BMP_temperature;BMP_pressure;BME280_temperature;BME280_humidity;BME280_pressure;Samples;Min_cycle;Max_cycle;Signal;HPM_P1;HPM_P2
2022/07/30 00:00:31;;;;;;;12.82;7.50;;;;;;;18.90;100.00;101750.88;5104085;27;20064;-60
2022/07/30 00:02:58;;;;;;;15.50;7.63;;;;;;;18.89;100.00;101746.56;5112545;27;20055;-60
2022/07/30 00:05:24;;;;;;;11.93;7.65;;;;;;;18.91;100.00;101749.84;5103711;27;20354;-60
2022/07/30 00:07:51;;;;;;;10.75;7.10;;;;;;;18.91;100.00;101744.53;5102505;27;20057;-59
2022/07/30 00:10:19;;;;;;;21.83;8.60;;;;;;;18.90;100.00;101745.56;5092116;27;20047;-58
2022/07/30 00:12:45;;;;;;;15.75;8.02;;;;;;;18.91;100.00;101743.72;5101053;27;20051;-60
2022/07/30 00:15:12;;;;;;;13.80;8.38;;;;;;;18.82;100.00;101752.75;5099508;28;20432;-59
2022/07/30 00:17:38;;;;;;;18.20;9.02;;;;;;;18.73;100.00;101742.16;5094956;27;20369;-59
2022/07/30 00:20:05;;;;;;;14.07;7.05;;;;;;;18.70;100.00;101744.34;5108033;27;20058;-61
2022/07/30 00:22:32;;;;;;;16.27;8.10;;;;;;;18.65;100.00;101736.91;5100587;27;20051;-60
2022/07/30 00:24:58;;;;;;;14.90;8.07;;;;;;;18.62;100.00;101741.75;5104814;27;20596;-60
2022/07/30 00:27:25;;;;;;;12.05;7.95;;;;;;;18.56;100.00;101740.63;5104453;27;20047;-59
2022/07/30 00:29:51;;;;;;;16.60;8.48;;;;;;;18.60;100.00;101744.59;5100266;27;20440;-60
2022/07/30 00:32:18;;;;;;;15.25;7.45;;;;;;;18.61;100.00;101743.59;5106424;27;20115;-60
2022/07/30 00:34:44;;;;;;;11.73;7.03;;;;;;;18.56;100.00;101745.94;5106567;27;20673;-58
2022/07/30 00:37:11;;;;;;;13.32;7.95;;;;;;;18.57;100.00;101739.63;5096806;28;20582;-58
2022/07/30 00:39:37;;;;;;;13.07;7.05;;;;;;;18.56;100.00;101744.13;5088725;28;20070;-59
2022/07/30 00:42:04;;;;;;;13.88;7.63;;;;;;;18.54;100.00;101743.50;5105915;28;20051;-61
2022/07/30 00:44:30;;;;;;;14.05;7.18;;;;;;;18.55;100.00;101746.97;5106043;28;20043;-60
2022/07/30 00:46:57;;;;;;;11.90;7.70;;;;;;;18.53;100.00;101746.31;5102042;28;20051;-60
2022/07/30 00:49:25;;;;;;;16.60;8.77;;;;;;;18.46;100.00;101737.38;5116528;28;20363;-60
2022/07/30 00:51:52;;;;;;;16.83;7.83;;;;;;;18.41;100.00;101739.75;5094397;27;20378;-60
2022/07/30 00:54:20;;;;;;;11.10;6.60;;;;;;;18.41;100.00;101745.06;5098490;27;20295;-58
2022/07/30 00:56:47;;;;;;;15.95;8.20;;;;;;;18.38;100.00;101744.44;5104962;27;20043;-60
2022/07/30 00:59:14;;;;;;;14.13;7.80;;;;;;;18.34;100.00;101744.94;5116740;27;20410;-59
2022/07/30 01:01:41;;;;;;;11.45;7.15;;;;;;;18.33;100.00;101748.59;5111300;27;20055;-60
2022/07/30 01:04:10;;;;;;;18.50;7.22;;;;;;;18.33;100.00;101745.94;5113415;27;20576;-62
2022/07/30 01:06:38;;;;;;;19.85;7.70;;;;;;;18.33;100.00;101741.44;5103606;27;20082;-61
2022/07/30 01:09:06;;;;;;;18.65;7.20;;;;;;;18.30;100.00;101736.47;5084169;28;20444;-61
2022/07/30 01:11:37;;;;;;;17.52;6.88;;;;;;;18.26;100.00;101737.84;5113179;27;20047;-60
2022/07/30 01:14:05;;;;;;;16.10;7.38;;;;;;;18.24;100.00;101745.16;5094764;28;20588;-61
2022/07/30 01:16:34;;;;;;;12.18;6.88;;;;;;;18.22;100.00;101731.22;5114893;27;20055;-60
2022/07/30 01:22:02;;;;;;;15.52;7.25;;;;;;;18.20;100.00;101725.25;5099787;27;20040;-59
2022/07/30 01:24:42;;;;;;;13.70;6.22;;;;;;;18.18;100.00;101738.69;5103218;27;20039;-60
2022/07/30 01:27:12;;;;;;;13.68;6.22;;;;;;;18.15;100.00;101733.75;5099376;27;20051;-61
2022/07/30 01:29:45;;;;;;;11.80;6.60;;;;;;;18.15;100.00;101731.09;5113153;27;20066;-61
2022/07/30 01:32:13;;;;;;;15.68;6.80;;;;;;;18.16;100.00;101737.22;5089831;28;20052;-61
2022/07/30 01:34:42;;;;;;;12.82;7.35;;;;;;;18.16;100.00;101735.41;5096928;28;20043;-60
2022/07/30 01:37:10;;;;;;;13.50;6.45;;;;;;;18.15;100.00;101730.25;5109938;27;20374;-60
2022/07/30 01:39:38;;;;;;;15.60;6.53;;;;;;;18.11;100.00;101729.81;5112066;27;20408;-60
2022/07/30 01:42:07;;;;;;;15.27;7.07;;;;;;;18.13;100.00;101729.59;5109474;27;20050;-61
2022/07/30 01:44:36;;;;;;;12.73;7.15;;;;;;;18.13;100.00;101740.22;5106689;27;20047;-61
2022/07/30 01:47:03;;;;;;;13.57;7.00;;;;;;;18.11;100.00;101737.75;5097174;27;20058;-61
2022/07/30 01:49:31;;;;;;;13.77;6.20;;;;;;;18.14;100.00;101736.59;5103778;27;20055;-61
2022/07/30 01:52:00;;;;;;;11.67;7.00;;;;;;;18.13;100.00;101741.06;5114732;27;20058;-61
2022/07/30 01:54:29;;;;;;;14.38;6.57;;;;;;;18.14;100.00;101733.94;5094122;28;20074;-61
2022/07/30 01:56:58;;;;;;;15.25;6.82;;;;;;;18.12;100.00;101735.94;5113929;27;20410;-61
2022/07/30 01:59:26;;;;;;;17.10;7.00;;;;;;;18.14;100.00;101733.94;5126012;27;20466;-60
2022/07/30 02:01:53;;;;;;;13.98;6.90;;;;;;;18.10;100.00;101728.13;5095619;27;20047;-61
2022/07/30 02:04:19;;;;;;;11.93;6.50;;;;;;;18.07;100.00;101735.63;5102062;27;20062;-61
2022/07/30 02:07:09;;;;;;;12.35;6.68;;;;;;;18.16;100.00;101734.56;5114205;27;20047;-61
2022/07/30 02:09:42;;;;;;;15.13;6.40;;;;;;;18.18;100.00;101744.00;5104808;27;20055;-60
2022/07/30 02:12:27;;;;;;;12.43;6.38;;;;;;;18.19;100.00;101736.91;5112898;27;20574;-61
2022/07/30 02:14:56;;;;;;;13.93;6.38;;;;;;;18.22;100.00;101741.03;5103665;27;20043;-60
2022/07/30 02:17:28;;;;;;;12.90;6.70;;;;;;;18.24;100.00;101744.34;5106684;27;20057;-60
2022/07/30 02:20:01;;;;;;;12.13;7.30;;;;;;;18.25;100.00;101744.16;5102316;27;20596;-60
2022/07/30 02:22:38;;;;;;;11.45;6.70;;;;;;;18.24;100.00;101739.03;5118367;27;20150;-60
2022/07/30 02:25:06;;;;;;;10.65;6.70;;;;;;;18.28;100.00;101745.63;5104173;27;20371;-60
2022/07/30 02:27:35;;;;;;;12.07;6.38;;;;;;;18.24;100.00;101744.34;5098365;27;20047;-62
2022/07/30 02:30:04;;;;;;;11.80;6.32;;;;;;;18.23;100.00;101740.00;5097623;27;20053;-62
2022/07/30 02:32:37;;;;;;;17.43;7.13;;;;;;;18.29;100.00;101734.84;5117709;27;20047;-60
2022/07/30 02:35:10;;;;;;;12.70;7.60;;;;;;;18.27;100.00;101738.66;5094986;27;20447;-60
2022/07/30 02:37:40;;;;;;;21.08;8.10;;;;;;;18.24;100.00;101739.84;5108822;27;20445;-61
2022/07/30 02:40:14;;;;;;;11.63;7.88;;;;;;;18.25;100.00;101745.97;5083874;28;20055;-61
2022/07/30 02:42:44;;;;;;;19.33;8.25;;;;;;;18.20;100.00;101741.19;5092646;27;20044;-60
2022/07/30 02:45:11;;;;;;;14.18;8.10;;;;;;;18.21;100.00;101742.00;5112677;27;20047;-60
2022/07/30 02:47:40;;;;;;;19.83;8.65;;;;;;;18.23;100.00;101738.19;5093424;27;20386;-60
2022/07/30 02:50:07;;;;;;;;;;;;;;;18.21;100.00;101737.56;5105768;27;20043;-60
2022/07/30 02:52:36;;;;;;;15.75;10.27;;;;;;;18.12;100.00;101742.06;5105008;27;19931;-58
2022/07/30 02:55:04;;;;;;;15.88;8.70;;;;;;;18.07;100.00;101743.56;5105556;27;20055;-60
2022/07/30 02:57:31;;;;;;;13.40;8.82;;;;;;;18.04;100.00;101747.41;5110737;27;20051;-60
2022/07/30 02:59:59;;;;;;;13.87;8.60;;;;;;;18.01;100.00;101736.31;5105442;27;20371;-61
2022/07/30 03:02:26;;;;;;;16.48;8.75;;;;;;;18.02;100.00;101745.94;5100063;27;20158;-60
2022/07/30 03:04:58;;;;;;;15.88;9.18;;;;;;;18.03;100.00;101750.22;5091784;28;20497;-60
2022/07/30 03:07:26;;;;;;;;;;;;;;;18.05;100.00;101743.75;5104528;27;20052;-60
2022/07/30 03:09:55;;;;;;;15.63;10.02;;;;;;;18.07;100.00;101747.09;5116647;27;19946;-60
2022/07/30 03:12:22;;;;;;;18.73;9.43;;;;;;;18.07;100.00;101743.56;5114601;27;20077;-59
2022/07/30 03:14:50;;;;;;;18.43;9.93;;;;;;;18.07;100.00;101739.13;5100700;27;20048;-61
2022/07/30 03:17:18;;;;;;;15.88;9.48;;;;;;;18.05;100.00;101743.75;5097779;27;20290;-61
2022/07/30 03:19:48;;;;;;;15.55;10.68;;;;;;;18.00;100.00;101743.44;5107156;27;20488;-60
2022/07/30 03:22:17;;;;;;;15.40;9.52;;;;;;;18.04;100.00;101744.75;5092832;27;20051;-61
2022/07/30 03:24:47;;;;;;;11.98;7.93;;;;;;;18.02;100.00;101740.63;5099668;28;20056;-61
2022/07/30 03:27:15;;;;;;;16.90;9.70;;;;;;;18.02;100.00;101759.22;5098212;28;20279;-61
2022/07/30 03:29:44;;;;;;;15.23;10.00;;;;;;;17.96;100.00;101752.75;5099409;27;20048;-60
2022/07/30 03:32:11;;;;;;;16.02;10.18;;;;;;;17.92;100.00;101748.81;5111902;27;20066;-60
2022/07/30 03:34:41;;;;;;;17.30;10.63;;;;;;;17.86;100.00;101749.50;5103267;27;20080;-61
2022/07/30 03:37:09;;;;;;;14.05;10.20;;;;;;;17.78;100.00;101747.66;5106194;27;20639;-59
2022/07/30 03:39:37;;;;;;;13.65;10.23;;;;;;;17.76;100.00;101755.78;5104070;27;20062;-61
2022/07/30 03:42:06;;;;;;;17.88;10.40;;;;;;;17.77;100.00;101754.78;5107665;27;20054;-61
2022/07/30 03:44:33;;;;;;;14.80;10.52;;;;;;;17.69;100.00;101754.81;5115394;27;20072;-60
2022/07/30 03:47:01;;;;;;;16.20;10.73;;;;;;;17.61;100.00;101759.31;5113360;27;20057;-60
2022/07/30 03:49:28;;;;;;;14.80;9.73;;;;;;;17.61;100.00;101757.50;5100547;27;20547;-60
2022/07/30 03:51:55;;;;;;;13.68;9.10;;;;;;;17.63;100.00;101763.44;5103692;27;20050;-61
2022/07/30 03:54:22;;;;;;;15.48;10.45;;;;;;;17.68;100.00;101763.78;5111812;27;20054;-61
2022/07/30 03:56:49;;;;;;;16.85;10.85;;;;;;;17.60;100.00;101769.09;5105371;27;20041;-60
2022/07/30 03:59:16;;;;;;;14.18;9.43;;;;;;;17.58;100.00;101774.59;5096008;27;20605;-60
2022/07/30 04:01:42;;;;;;;12.73;9.25;;;;;;;17.58;100.00;101771.09;5097044;27;20061;-61
2022/07/30 04:04:09;;;;;;;17.60;10.38;;;;;;;17.52;100.00;101763.81;5094528;27;20048;-60
2022/07/30 04:06:41;;;;;;;11.82;9.00;;;;;;;17.57;100.00;101766.78;5116160;27;20093;-60
2022/07/30 04:09:11;;;;;;;12.95;8.63;;;;;;;17.58;100.00;101763.97;5098898;27;20578;-60
2022/07/30 04:11:38;;;;;;;13.98;9.70;;;;;;;17.62;100.00;101767.13;5106636;27;20161;-60
2022/07/30 04:14:06;;;;;;;13.23;9.63;;;;;;;17.63;100.00;101766.09;5105615;27;20306;-61
2022/07/30 04:16:45;;;;;;;12.88;9.25;;;;;;;17.66;100.00;101768.44;5105742;27;20039;-61
2022/07/30 04:19:21;;;;;;;14.25;9.25;;;;;;;17.71;100.00;101773.22;5104163;27;20083;-60
2022/07/30 04:21:49;;;;;;;15.30;9.65;;;;;;;17.73;100.00;101765.91;5103439;27;20047;-60
2022/07/30 04:24:17;;;;;;;15.40;9.52;;;;;;;17.68;100.00;101766.44;5100149;28;20051;-61
2022/07/30 04:26:46;;;;;;;14.60;9.20;;;;;;;17.68;100.00;101763.78;5089852;27;20258;-61
2022/07/30 04:29:13;;;;;;;17.83;10.07;;;;;;;17.65;100.00;101763.28;5096359;28;20482;-61
2022/07/30 04:31:45;;;;;;;16.70;10.00;;;;;;;17.62;100.00;101766.28;5091098;28;20131;-61
2022/07/30 04:34:13;;;;;;;13.73;9.35;;;;;;;17.61;100.00;101776.06;5099221;28;20055;-60
2022/07/30 04:36:41;;;;;;;14.15;10.00;;;;;;;17.59;100.00;101778.88;5107215;27;20112;-60
2022/07/30 04:39:08;;;;;;;17.40;9.07;;;;;;;17.55;100.00;101784.69;5106144;28;20411;-60
2022/07/30 04:41:35;;;;;;;14.27;8.68;;;;;;;17.52;100.00;101780.56;5103329;27;20339;-61
2022/07/30 04:44:16;;;;;;;17.40;9.25;;;;;;;17.51;100.00;101783.38;5103944;27;20051;-60
2022/07/30 04:46:42;;;;;;;13.88;8.98;;;;;;;17.46;100.00;101785.69;5110455;28;20088;-61
2022/07/30 04:49:11;;;;;;;14.73;8.73;;;;;;;17.51;100.00;101783.38;5086471;28;20264;-61
2022/07/30 04:51:38;;;;;;;;;;;;;;;17.50;100.00;101789.66;5112610;28;20062;-60
2022/07/30 04:54:07;;;;;;;12.25;9.02;;;;;;;17.48;100.00;101794.31;5102620;27;19923;-59
2022/07/30 04:56:42;;;;;;;15.65;8.75;;;;;;;17.52;100.00;101798.28;5102300;28;20515;-61
2022/07/30 04:59:20;;;;;;;;;;;;;;;17.56;100.00;101797.81;5112089;28;20503;-60
2022/07/30 05:01:49;;;;;;;17.45;7.88;;;;;;;17.59;100.00;101797.44;5099806;27;19923;-60
2022/07/30 05:04:17;;;;;;;14.02;8.27;;;;;;;17.61;100.00;101799.13;5110593;27;20043;-60
2022/07/30 05:06:44;;;;;;;14.57;8.82;;;;;;;17.62;100.00;101801.59;5101769;28;20053;-61
2022/07/30 05:09:13;;;;;;;20.03;9.50;;;;;;;17.59;100.00;101794.78;5094156;28;20051;-61
2022/07/30 05:11:40;;;;;;;15.70;8.98;;;;;;;17.59;100.00;101804.59;5104593;28;20047;-60
2022/07/30 05:14:06;;;;;;;15.55;8.68;;;;;;;17.58;100.00;101814.38;5095955;27;20499;-61
2022/07/30 05:16:34;;;;;;;17.55;8.18;;;;;;;17.57;100.00;101810.06;5100219;28;20074;-61
2022/07/30 05:19:00;;;;;;;14.30;8.27;;;;;;;17.52;100.00;101815.06;5089663;28;20514;-61
2022/07/30 05:21:33;;;;;;;14.63;7.68;;;;;;;17.59;100.00;101810.72;5096893;28;20685;-60
2022/07/30 05:23:59;;;;;;;14.25;7.72;;;;;;;17.56;100.00;101811.06;5093728;27;20323;-62
2022/07/30 05:26:25;;;;;;;14.63;7.72;;;;;;;17.51;100.00;101812.56;5114088;28;20050;-59
2022/07/30 05:28:53;;;;;;;14.63;6.93;;;;;;;17.55;100.00;101820.00;5106561;27;20055;-61
2022/07/30 05:31:22;;;;;;;13.60;7.32;;;;;;;17.55;100.00;101819.19;5103227;28;20054;-60
2022/07/30 05:33:50;;;;;;;14.27;7.38;;;;;;;17.54;100.00;101820.16;5108197;28;20076;-61
2022/07/30 05:36:17;;;;;;;12.13;6.88;;;;;;;17.59;100.00;101815.19;5091421;28;20446;-61
2022/07/30 05:38:43;;;;;;;10.98;6.72;;;;;;;17.65;100.00;101821.66;5105644;27;20080;-60
2022/07/30 05:41:10;;;;;;;12.07;7.25;;;;;;;17.60;100.00;101819.50;5099849;27;20504;-61
2022/07/30 05:43:56;;;;;;;11.45;7.40;;;;;;;17.61;100.00;101826.47;5103301;27;20480;-61
2022/07/30 05:46:23;;;;;;;11.00;7.30;;;;;;;17.55;100.00;101821.84;5106951;27;20043;-60
2022/07/30 05:48:49;;;;;;;13.00;7.43;;;;;;;17.58;100.00;101819.69;5096121;27;20047;-61
2022/07/30 05:51:18;;;;;;;14.48;7.20;;;;;;;17.59;100.00;101826.63;5098344;27;20424;-59
2022/07/30 05:53:44;;;;;;;15.05;6.57;;;;;;;17.59;100.00;101825.81;5108033;27;20051;-59
2022/07/30 05:56:11;;;;;;;10.23;6.22;;;;;;;17.64;100.00;101826.16;5114558;27;20050;-61
2022/07/30 05:58:37;;;;;;;13.98;7.38;;;;;;;17.63;100.00;101823.66;5122261;27;20047;-60
2022/07/30 06:01:04;;;;;;;7.32;4.85;;;;;;;17.67;100.00;101825.78;5113571;27;20481;-61
2022/07/30 06:03:30;;;;;;;14.02;6.38;;;;;;;17.68;100.00;101830.13;5099041;27;20048;-60
2022/07/30 06:05:57;;;;;;;7.63;6.28;;;;;;;17.70;100.00;101830.78;5095504;27;20047;-59
2022/07/30 06:08:23;;;;;;;11.48;6.28;;;;;;;17.67;100.00;101838.22;5111315;27;20426;-60
2022/07/30 06:10:50;;;;;;;15.25;5.65;;;;;;;17.70;100.00;101833.41;5095119;27;20048;-59
2022/07/30 06:13:16;;;;;;;12.02;5.93;;;;;;;17.73;100.00;101829.59;5102439;27;20492;-62
2022/07/30 06:15:42;;;;;;;12.50;6.10;;;;;;;17.77;100.00;101834.38;5105766;27;20043;-61
2022/07/30 06:18:09;;;;;;;8.43;5.40;;;;;;;17.79;100.00;101834.22;5109216;27;20047;-61
2022/07/30 06:20:35;;;;;;;10.32;5.70;;;;;;;17.82;100.00;101833.91;5104594;27;20052;-60
2022/07/30 06:23:02;;;;;;;15.48;6.05;;;;;;;17.88;100.00;101835.91;5105656;27;20047;-61
2022/07/30 06:25:28;;;;;;;12.43;5.72;;;;;;;17.88;100.00;101841.22;5113072;27;20139;-59
2022/07/30 06:27:54;;;;;;;12.98;6.13;;;;;;;17.84;100.00;101841.69;5097141;27;20047;-60
2022/07/30 06:30:21;;;;;;;10.23;5.38;;;;;;;17.88;100.00;101846.53;5101552;27;20052;-60
2022/07/30 06:32:56;;;;;;;10.15;5.82;;;;;;;17.86;100.00;101845.03;5098096;27;20362;-61
2022/07/30 06:35:23;;;;;;;8.40;5.30;;;;;;;17.91;100.00;101848.81;5087507;28;20058;-61
2022/07/30 06:37:49;;;;;;;9.68;5.32;;;;;;;17.96;100.00;101853.63;5104436;27;20051;-61
2022/07/30 06:40:33;;;;;;;10.43;5.20;;;;;;;17.96;100.00;101862.41;5103970;27;20058;-60
2022/07/30 06:42:59;;;;;;;9.50;4.85;;;;;;;17.98;100.00;101856.94;5110916;27;20044;-60
2022/07/30 06:45:25;;;;;;;12.30;5.25;;;;;;;18.01;100.00;101867.19;5093135;27;20495;-61
2022/07/30 06:47:57;;;;;;;10.80;5.65;;;;;;;18.01;100.00;101858.41;5100539;27;20498;-61
2022/07/30 06:50:26;;;;;;;9.88;4.90;;;;;;;18.05;100.00;101857.91;5099393;27;20233;-60
2022/07/30 06:52:52;;;;;;;14.18;5.63;;;;;;;18.09;100.00;101858.38;5111156;27;20058;-61
2022/07/30 06:55:19;;;;;;;11.57;5.57;;;;;;;18.12;100.00;101858.88;5118061;27;20662;-61
2022/07/30 06:57:45;;;;;;;10.77;4.80;;;;;;;18.13;100.00;101868.53;5084756;28;20051;-59
2022/07/30 07:00:12;;;;;;;12.52;5.47;;;;;;;18.16;100.00;101859.38;5102179;27;20050;-61
2022/07/30 07:02:38;;;;;;;7.90;4.78;;;;;;;18.20;100.00;101859.88;5104695;27;20296;-61
2022/07/30 07:05:06;;;;;;;9.43;4.38;;;;;;;18.27;100.00;101860.81;5118234;27;20047;-61
2022/07/30 07:07:36;;;;;;;8.13;4.20;;;;;;;18.36;100.00;101860.63;5107559;27;20076;-62
2022/07/30 07:10:10;;;;;;;11.65;4.40;;;;;;;18.38;100.00;101860.44;5113359;27;20156;-60
2022/07/30 07:12:36;;;;;;;9.23;3.63;;;;;;;18.48;100.00;101863.72;5107656;27;20044;-62
2022/07/30 07:15:04;;;;;;;7.57;3.75;;;;;;;18.54;100.00;101865.69;5088268;28;20541;-61
2022/07/30 07:17:30;;;;;;;9.33;3.90;;;;;;;18.54;100.00;101862.19;5103055;27;20066;-60
2022/07/30 07:19:57;;;;;;;8.82;3.83;;;;;;;18.67;100.00;101870.44;5107815;27;20158;-60
2022/07/30 07:22:28;;;;;;;12.10;3.88;;;;;;;18.71;100.00;101870.91;5116511;27;20047;-61
2022/07/30 07:24:54;;;;;;;11.00;3.80;;;;;;;18.75;100.00;101869.56;5119356;27;20049;-60
2022/07/30 07:27:21;;;;;;;7.90;3.45;;;;;;;18.80;100.00;101866.41;5099946;27;20047;-61
2022/07/30 07:29:47;;;;;;;8.32;3.50;;;;;;;18.80;100.00;101871.72;5101828;27;20043;-62
2022/07/30 07:32:32;;;;;;;6.32;3.53;;;;;;;18.85;100.00;101872.03;5094962;27;20051;-61
2022/07/30 07:34:59;;;;;;;8.07;3.40;;;;;;;18.89;100.00;101865.34;5101425;27;20395;-62
2022/07/30 07:37:26;;;;;;;9.13;3.40;;;;;;;18.94;100.00;101874.47;5104371;27;20051;-61
2022/07/30 07:39:52;;;;;;;10.30;3.40;;;;;;;18.96;100.00;101872.47;5102142;27;20047;-60
2022/07/30 07:42:19;;;;;;;7.55;3.60;;;;;;;18.99;100.00;101871.25;5090122;27;20525;-60
2022/07/30 07:44:45;;;;;;;8.68;3.90;;;;;;;18.95;100.00;101872.63;5106379;27;20051;-61
2022/07/30 07:47:11;;;;;;;11.93;3.65;;;;;;;18.98;100.00;101876.78;5109369;27;20055;-61
2022/07/30 07:49:38;;;;;;;7.40;3.63;;;;;;;19.02;100.00;101875.44;5107850;27;20057;-60
2022/07/30 07:52:05;;;;;;;10.55;3.50;;;;;;;19.07;100.00;101878.38;5109631;27;20066;-60
2022/07/30 07:54:31;;;;;;;7.00;3.20;;;;;;;19.07;100.00;101881.88;5091260;27;20055;-60
2022/07/30 07:56:58;;;;;;;6.45;3.05;;;;;;;19.10;100.00;101880.69;5097218;27;20082;-60
2022/07/30 07:59:27;;;;;;;6.60;4.00;;;;;;;19.12;100.00;101889.31;5094672;28;20051;-61
2022/07/30 08:02:06;;;;;;;;;;;;;;;19.08;100.00;101888.84;5096019;27;20047;-58
2022/07/30 08:04:34;;;;;;;9.00;3.88;;;;;;;19.09;100.00;101887.84;5110270;27;19927;-61
2022/07/30 08:07:00;;;;;;;6.70;4.03;;;;;;;19.08;100.00;101874.72;5101390;27;20051;-60
2022/07/30 08:09:27;;;;;;;10.68;4.32;;;;;;;19.19;100.00;101876.97;5103315;27;20066;-59
2022/07/30 08:12:11;;;;;;;7.82;4.30;;;;;;;19.19;100.00;101871.66;5093049;27;20058;-60
2022/07/30 08:14:38;;;;;;;13.63;4.22;;;;;;;19.18;100.00;101880.63;5112225;27;20054;-61
2022/07/30 08:17:04;;;;;;;9.93;4.28;;;;;;;19.19;100.00;101871.66;5116806;27;20054;-60
2022/07/30 08:19:32;;;;;;;7.80;3.58;;;;;;;19.22;100.00;101878.44;5111458;27;20510;-59
2022/07/30 08:21:58;;;;;;;7.57;2.78;;;;;;;19.27;100.00;101876.91;5106215;27;20048;-60
2022/07/30 08:24:25;;;;;;;5.38;3.15;;;;;;;19.30;100.00;101881.84;5090277;27;20054;-60
2022/07/30 08:26:52;;;;;;;7.78;3.75;;;;;;;19.40;100.00;101870.13;5105449;27;20529;-61
2022/07/30 08:29:18;;;;;;;6.97;3.40;;;;;;;19.61;100.00;101869.47;5092145;27;20054;-60
2022/07/30 08:31:44;;;;;;;6.53;3.28;;;;;;;19.90;100.00;101868.72;5104895;27;20522;-62
2022/07/30 08:34:12;;;;;;;10.10;3.50;;;;;;;20.26;100.00;101870.63;5087474;27;20382;-61
2022/07/30 08:36:39;;;;;;;12.52;3.00;;;;;;;20.65;100.00;101864.97;5093582;27;20052;-62
2022/07/30 08:39:05;;;;;;;7.32;3.20;;;;;;;20.93;100.00;101861.59;5105845;27;20503;-59
2022/07/30 08:41:32;;;;;;;5.22;2.50;;;;;;;21.23;96.53;101870.31;5096580;28;20054;-61
2022/07/30 08:44:00;;;;;;;8.05;3.13;;;;;;;21.37;91.30;101865.91;5099303;28;20050;-61
2022/07/30 08:46:30;;;;;;;6.95;2.92;;;;;;;21.78;93.08;101856.34;5103977;28;20047;-60
2022/07/30 08:48:57;;;;;;;7.43;2.65;;;;;;;22.04;86.64;101861.06;5108995;28;20508;-60
2022/07/30 08:51:26;;;;;;;7.22;3.17;;;;;;;22.17;86.40;101862.94;5109342;27;20138;-59
2022/07/30 08:53:52;;;;;;;7.50;2.85;;;;;;;22.39;89.27;101861.88;5093266;27;20040;-60
2022/07/30 08:56:19;;;;;;;8.32;3.40;;;;;;;22.71;87.09;101862.16;5114831;27;20047;-60
2022/07/30 08:58:46;;;;;;;5.63;3.00;;;;;;;22.94;80.75;101863.66;5100250;28;20158;-60
2022/07/30 09:01:12;;;;;;;7.32;3.05;;;;;;;23.18;83.92;101865.78;5105034;28;20051;-61
2022/07/30 09:03:39;;;;;;;7.50;3.15;;;;;;;23.43;81.31;101865.16;5103747;28;20450;-61
2022/07/30 09:06:10;;;;;;;6.53;3.00;;;;;;;23.54;77.81;101880.63;5099625;28;20579;-61
2022/07/30 09:08:36;;;;;;;9.80;2.95;;;;;;;23.68;75.26;101876.06;5095060;28;20059;-60
2022/07/30 09:11:03;;;;;;;7.25;2.80;;;;;;;23.96;76.91;101870.47;5098886;28;20059;-60
2022/07/30 09:13:36;;;;;;;6.20;2.90;;;;;;;24.07;75.35;101879.69;5104749;27;20463;-61
2022/07/30 09:16:04;;;;;;;9.50;3.28;;;;;;;23.98;77.31;101870.25;5111630;27;20054;-61
2022/07/30 09:18:33;;;;;;;8.85;3.00;;;;;;;24.41;80.37;101872.38;5110521;27;20515;-61
2022/07/30 09:21:16;;;;;;;7.13;2.85;;;;;;;24.50;74.41;101876.44;5102309;27;20422;-62
2022/07/30 09:23:57;;;;;;;8.70;3.10;;;;;;;24.37;69.20;101871.97;5101493;27;20055;-62
2022/07/30 09:26:25;;;;;;;4.95;2.30;;;;;;;24.44;67.05;101872.78;5100212;28;20058;-63
2022/07/30 09:28:51;;;;;;;4.38;2.20;;;;;;;24.86;71.35;101869.69;5094403;28;20496;-62
2022/07/30 09:31:20;;;;;;;6.55;2.17;;;;;;;24.95;69.14;101873.78;5121036;27;20560;-63
2022/07/30 09:33:46;;;;;;;5.70;2.55;;;;;;;25.21;71.05;101869.25;5102638;27;20563;-62
2022/07/30 09:36:17;;;;;;;5.65;2.63;;;;;;;25.12;70.31;101873.22;5102760;27;20055;-63
2022/07/30 09:38:50;;;;;;;8.32;3.25;;;;;;;24.89;71.24;101876.47;5094737;28;20062;-62
2022/07/30 09:41:31;;;;;;;6.03;2.60;;;;;;;24.88;70.69;101875.66;5107605;27;20051;-62
2022/07/30 09:44:06;;;;;;;6.07;2.80;;;;;;;24.91;72.27;101880.59;5112281;27;20124;-63
2022/07/30 09:46:49;;;;;;;8.30;2.45;;;;;;;24.91;71.63;101875.22;5105769;27;20047;-60
2022/07/30 09:49:18;;;;;;;7.82;2.78;;;;;;;25.14;71.60;101873.84;5106151;27;20058;-61
2022/07/30 09:51:45;;;;;;;5.75;2.50;;;;;;;25.19;65.47;101869.47;5105855;27;20414;-59
2022/07/30 09:54:24;;;;;;;6.93;2.50;;;;;;;25.19;69.70;101871.31;5113715;27;20920;-60
2022/07/30 09:57:07;;;;;;;6.35;2.30;;;;;;;25.45;70.66;101875.69;5099764;27;20051;-60
2022/07/30 09:59:54;;;;;;;8.85;2.65;;;;;;;25.58;71.10;101882.78;5102602;28;20062;-60
2022/07/30 10:02:32;;;;;;;10.43;2.60;;;;;;;25.67;69.36;101878.78;5103146;27;20051;-61
2022/07/30 10:05:14;;;;;;;8.80;2.45;;;;;;;25.73;67.76;101871.69;5105295;27;20135;-61
2022/07/30 10:07:49;;;;;;;6.43;2.58;;;;;;;25.73;65.48;101879.75;5107030;27;20043;-61
2022/07/30 10:10:19;;;;;;;5.72;2.20;;;;;;;25.62;67.56;101881.31;5119249;27;20463;-61
2022/07/30 10:12:49;;;;;;;5.53;2.25;;;;;;;25.81;67.82;101880.28;5112422;27;20401;-61
2022/07/30 10:15:19;;;;;;;3.42;2.08;;;;;;;25.94;68.62;101881.22;5095423;27;20061;-60
2022/07/30 10:17:48;;;;;;;5.18;2.15;;;;;;;26.16;66.59;101870.84;5097750;27;20050;-60
2022/07/30 10:20:15;;;;;;;6.03;2.00;;;;;;;25.80;62.92;101875.16;5091925;27;20051;-61
2022/07/30 10:22:42;;;;;;;4.95;2.13;;;;;;;26.19;65.93;101868.53;5108134;27;20055;-60
2022/07/30 10:25:12;;;;;;;5.20;2.40;;;;;;;26.27;64.40;101870.09;5097096;27;20471;-61
2022/07/30 10:27:42;;;;;;;5.30;2.42;;;;;;;26.49;63.63;101858.84;5116571;27;20051;-60
2022/07/30 10:30:09;;;;;;;7.10;2.42;;;;;;;26.42;63.48;101856.22;5099905;27;20050;-61
2022/07/30 10:32:39;;;;;;;6.03;2.40;;;;;;;26.69;65.19;101856.72;5094848;27;20429;-61
2022/07/30 10:35:08;;;;;;;9.00;2.38;;;;;;;26.61;62.48;101860.53;5116940;27;20043;-61
2022/07/30 10:37:37;;;;;;;6.83;2.50;;;;;;;26.61;61.73;101859.75;5097860;27;20052;-60
2022/07/30 10:40:31;;;;;;;3.60;2.20;;;;;;;26.58;58.49;101861.03;5103772;27;20349;-60
2022/07/30 10:43:35;;;;;;;6.15;2.38;;;;;;;26.62;57.42;101848.75;5094364;27;20492;-62
2022/07/30 10:46:15;;;;;;;8.15;2.10;;;;;;;26.91;59.36;101864.25;5099666;27;20052;-61
2022/07/30 10:48:47;;;;;;;3.83;1.88;;;;;;;26.95;58.87;101858.22;5103779;27;20088;-61
2022/07/30 10:51:16;;;;;;;4.10;1.75;;;;;;;27.16;58.65;101861.38;5108176;27;20088;-60
2022/07/30 10:53:59;;;;;;;6.22;2.30;;;;;;;27.27;57.99;101860.63;5097083;27;20414;-60
2022/07/30 10:56:26;;;;;;;5.07;2.00;;;;;;;27.18;57.03;101859.28;5109931;27;20496;-61
2022/07/30 10:59:00;;;;;;;5.90;1.90;;;;;;;27.46;59.21;101861.31;5109534;27;20047;-61
2022/07/30 11:01:46;;;;;;;4.28;1.95;;;;;;;27.55;56.17;101854.53;5105082;27;20052;-64
2022/07/30 11:04:24;;;;;;;3.22;1.90;;;;;;;27.75;57.85;101856.84;5108562;27;20043;-61
2022/07/30 11:07:19;;;;;;;4.15;1.83;;;;;;;27.63;56.89;101855.22;5104593;27;20055;-61
2022/07/30 11:09:47;;;;;;;4.18;1.83;;;;;;;27.49;56.84;101846.56;5103452;27;20073;-61
2022/07/30 11:12:46;;;;;;;2.47;1.45;;;;;;;27.78;57.69;101856.38;5084060;28;20062;-60
2022/07/30 11:15:18;;;;;;;6.95;1.88;;;;;;;27.91;55.88;101847.25;5107795;27;20051;-61
2022/07/30 11:18:02;;;;;;;5.82;1.67;;;;;;;28.12;55.21;101848.47;5101804;27;20594;-61
2022/07/30 11:20:32;;;;;;;6.50;2.25;;;;;;;28.15;56.28;101852.59;5099918;27;20438;-60
2022/07/30 11:23:09;;;;;;;5.72;2.10;;;;;;;28.16;55.33;101856.91;5108011;27;20146;-61
2022/07/30 11:25:41;;;;;;;6.07;1.90;;;;;;;28.11;55.54;101852.25;5110022;27;20047;-61
2022/07/30 11:28:35;;;;;;;5.18;2.03;;;;;;;27.95;56.33;101855.66;5095098;28;20043;-60